sensor_id;sensor_type;location;lat;lon;timestamp;noise_LAeq;noise_LA_min;noise_LA_max;noise_LA01;noise_LA95
67320;Laerm;57665;51.436;5.978;2023-03-30T00:00:02;38.60;37.35;39.66;;
67320;Laerm;57665;51.436;5.978;2023-03-30T00:00:24;38.65;37.13;44.66;;
67320;Laerm;57665;51.436;5.978;2023-03-30T00:00:34;38.47;37.41;39.47;;
67320;Laerm;57665;51.436;5.978;2023-03-30T00:00:45;38.58;37.22;39.48;;
67320;Laerm;57665;51.436;5.978;2023-03-30T00:00:56;38.55;37.24;39.67;;
67320;Laerm;57665;51.436;5.978;2023-03-30T00:01:08;38.46;37.27;39.54;;
67320;Laerm;57665;51.436;5.978;2023-03-30T00:01:20;38.67;37.63;39.79;;
67320;Laerm;57665;51.436;5.978;2023-03-30T00:01:37;38.52;37.13;39.79;;
67320;Laerm;57665;51.436;5.978;2023-03-30T00:01:47;38.51;37.24;40.63;;
67320;Laerm;57665;51.436;5.978;2023-03-30T00:01:57;38.39;37.23;39.58;;
67320;Laerm;57665;51.436;5.978;2023-03-30T00:02:07;38.28;37.25;39.70;;
67320;Laerm;57665;51.436;5.978;2023-03-30T00:02:18;38.39;37.02;39.49;;
67320;Laerm;57665;51.436;5.978;2023-03-30T00:02:32;38.47;37.20;39.48;;
67320;Laerm;57665;51.436;5.978;2023-03-30T00:02:48;38.45;37.41;39.46;;
67320;Laerm;57665;51.436;5.978;2023-03-30T00:02:59;38.38;37.26;39.49;;
67320;Laerm;57665;51.436;5.978;2023-03-30T00:03:11;38.44;37.23;41.64;;
67320;Laerm;57665;51.436;5.978;2023-03-30T00:03:22;38.37;37.33;39.48;;
67320;Laerm;57665;51.436;5.978;2023-03-30T00:03:32;38.48;37.28;39.76;;
67320;Laerm;57665;51.436;5.978;2023-03-30T00:03:43;38.59;37.34;39.64;;
67320;Laerm;57665;51.436;5.978;2023-03-30T00:03:53;38.53;37.49;40.56;;
67320;Laerm;57665;51.436;5.978;2023-03-30T00:04:04;38.49;37.60;39.99;;
67320;Laerm;57665;51.436;5.978;2023-03-30T00:04:15;38.56;37.43;39.63;;
67320;Laerm;57665;51.436;5.978;2023-03-30T00:04:27;38.62;37.24;39.47;;
67320;Laerm;57665;51.436;5.978;2023-03-30T00:04:38;38.66;37.68;43.42;;
67320;Laerm;57665;51.436;5.978;2023-03-30T00:04:51;38.55;37.42;39.74;;
67320;Laerm;57665;51.436;5.978;2023-03-30T00:05:02;38.53;37.52;39.62;;
67320;Laerm;57665;51.436;5.978;2023-03-30T00:05:14;38.56;37.62;39.63;;
67320;Laerm;57665;51.436;5.978;2023-03-30T00:05:25;38.62;37.34;40.60;;
67320;Laerm;57665;51.436;5.978;2023-03-30T00:05:35;38.50;37.36;39.56;;
67320;Laerm;57665;51.436;5.978;2023-03-30T00:05:45;38.53;37.27;39.69;;
67320;Laerm;57665;51.436;5.978;2023-03-30T00:05:56;38.71;37.47;39.71;;
67320;Laerm;57665;51.436;5.978;2023-03-30T00:06:12;38.64;37.55;42.02;;
67320;Laerm;57665;51.436;5.978;2023-03-30T00:06:24;38.79;37.59;44.91;;
67320;Laerm;57665;51.436;5.978;2023-03-30T00:06:35;38.78;37.41;42.24;;
67320;Laerm;57665;51.436;5.978;2023-03-30T00:06:48;38.81;37.40;44.71;;
67320;Laerm;57665;51.436;5.978;2023-03-30T00:06:59;38.57;37.54;39.92;;
67320;Laerm;57665;51.436;5.978;2023-03-30T00:07:09;38.59;37.63;39.79;;
67320;Laerm;57665;51.436;5.978;2023-03-30T00:07:20;38.59;37.50;39.58;;
67320;Laerm;57665;51.436;5.978;2023-03-30T00:07:30;38.55;37.44;39.62;;
67320;Laerm;57665;51.436;5.978;2023-03-30T00:07:40;38.83;37.52;43.79;;
67320;Laerm;57665;51.436;5.978;2023-03-30T00:07:51;38.62;37.42;39.50;;
67320;Laerm;57665;51.436;5.978;2023-03-30T00:08:01;38.65;37.69;40.33;;
67320;Laerm;57665;51.436;5.978;2023-03-30T00:08:11;38.86;37.47;43.31;;
67320;Laerm;57665;51.436;5.978;2023-03-30T00:08:23;38.67;37.26;40.52;;
67320;Laerm;57665;51.436;5.978;2023-03-30T00:08:37;38.66;37.59;39.79;;
67320;Laerm;57665;51.436;5.978;2023-03-30T00:08:48;38.64;37.63;39.79;;
67320;Laerm;57665;51.436;5.978;2023-03-30T00:08:58;38.98;37.89;40.43;;
67320;Laerm;57665;51.436;5.978;2023-03-30T00:09:09;38.86;37.34;39.99;;
67320;Laerm;57665;51.436;5.978;2023-03-30T00:09:19;38.84;37.72;40.15;;
67320;Laerm;57665;51.436;5.978;2023-03-30T00:09:31;38.78;37.48;40.24;;
67320;Laerm;57665;51.436;5.978;2023-03-30T00:09:42;38.71;37.48;39.84;;
67320;Laerm;57665;51.436;5.978;2023-03-30T00:09:52;38.64;37.44;39.55;;
67320;Laerm;57665;51.436;5.978;2023-03-30T00:10:16;38.69;37.43;39.99;;
67320;Laerm;57665;51.436;5.978;2023-03-30T00:10:27;38.70;37.43;39.88;;
67320;Laerm;57665;51.436;5.978;2023-03-30T00:10:38;39.34;37.66;40.58;;
67320;Laerm;57665;51.436;5.978;2023-03-30T00:10:48;39.19;38.08;40.58;;
67320;Laerm;57665;51.436;5.978;2023-03-30T00:11:09;39.55;38.08;40.98;;
67320;Laerm;57665;51.436;5.978;2023-03-30T00:11:24;66.13;39.81;76.26;;
67320;Laerm;57665;51.436;5.978;2023-03-30T00:11:35;69.61;52.62;79.44;;
67320;Laerm;57665;51.436;5.978;2023-03-30T00:11:46;47.58;41.16;54.71;;
67320;Laerm;57665;51.436;5.978;2023-03-30T00:12:00;44.42;39.98;50.32;;
67320;Laerm;57665;51.436;5.978;2023-03-30T00:12:12;41.12;38.33;48.30;;
67320;Laerm;57665;51.436;5.978;2023-03-30T00:12:24;39.85;38.06;43.70;;
67320;Laerm;57665;51.436;5.978;2023-03-30T00:12:34;39.32;37.36;41.98;;
67320;Laerm;57665;51.436;5.978;2023-03-30T00:12:45;39.03;37.75;42.54;;
67320;Laerm;57665;51.436;5.978;2023-03-30T00:12:56;38.86;37.54;40.17;;
67320;Laerm;57665;51.436;5.978;2023-03-30T00:13:07;38.73;37.36;40.52;;
67320;Laerm;57665;51.436;5.978;2023-03-30T00:13:17;38.71;37.47;39.76;;
67320;Laerm;57665;51.436;5.978;2023-03-30T00:13:28;38.60;37.47;39.87;;
67320;Laerm;57665;51.436;5.978;2023-03-30T00:13:38;38.81;37.54;40.91;;
67320;Laerm;57665;51.436;5.978;2023-03-30T00:13:59;38.77;37.85;40.00;;
67320;Laerm;57665;51.436;5.978;2023-03-30T00:14:10;38.67;37.32;39.56;;
67320;Laerm;57665;51.436;5.978;2023-03-30T00:14:24;38.76;37.29;39.79;;
67320;Laerm;57665;51.436;5.978;2023-03-30T00:14:40;38.80;37.62;39.95;;
67320;Laerm;57665;51.436;5.978;2023-03-30T00:14:51;38.66;37.52;39.72;;
67320;Laerm;57665;51.436;5.978;2023-03-30T00:15:11;38.67;37.40;39.67;;
67320;Laerm;57665;51.436;5.978;2023-03-30T00:15:22;38.69;37.57;39.83;;
67320;Laerm;57665;51.436;5.978;2023-03-30T00:15:33;38.71;37.44;39.75;;
67320;Laerm;57665;51.436;5.978;2023-03-30T00:15:43;38.74;37.77;39.77;;
67320;Laerm;57665;51.436;5.978;2023-03-30T00:15:54;38.70;37.68;39.95;;
67320;Laerm;57665;51.436;5.978;2023-03-30T00:16:05;38.80;37.38;40.30;;
67320;Laerm;57665;51.436;5.978;2023-03-30T00:16:16;38.67;37.60;40.32;;
67320;Laerm;57665;51.436;5.978;2023-03-30T00:16:27;38.73;37.49;40.11;;
67320;Laerm;57665;51.436;5.978;2023-03-30T00:16:37;38.69;37.47;40.00;;
67320;Laerm;57665;51.436;5.978;2023-03-30T00:16:47;38.59;37.44;39.78;;
67320;Laerm;57665;51.436;5.978;2023-03-30T00:16:57;38.64;37.77;39.83;;
67320;Laerm;57665;51.436;5.978;2023-03-30T00:17:08;38.77;37.47;39.95;;
67320;Laerm;57665;51.436;5.978;2023-03-30T00:17:25;38.80;37.48;40.46;;
67320;Laerm;57665;51.436;5.978;2023-03-30T00:17:35;38.77;37.32;40.48;;
67320;Laerm;57665;51.436;5.978;2023-03-30T00:17:45;38.58;37.57;39.60;;
67320;Laerm;57665;51.436;5.978;2023-03-30T00:17:56;38.77;37.32;39.94;;
67320;Laerm;57665;51.436;5.978;2023-03-30T00:18:06;38.76;37.65;40.01;;
67320;Laerm;57665;51.436;5.978;2023-03-30T00:18:16;38.93;37.80;41.16;;
67320;Laerm;57665;51.436;5.978;2023-03-30T00:18:27;39.21;37.85;42.51;;
67320;Laerm;57665;51.436;5.978;2023-03-30T00:18:39;40.80;37.88;46.49;;
67320;Laerm;57665;51.436;5.978;2023-03-30T00:18:54;39.09;37.76;40.47;;
67320;Laerm;57665;51.436;5.978;2023-03-30T00:19:04;39.13;37.97;40.20;;
67320;Laerm;57665;51.436;5.978;2023-03-30T00:19:20;42.37;38.46;48.90;;
67320;Laerm;57665;51.436;5.978;2023-03-30T00:19:30;40.14;38.26;42.16;;
67320;Laerm;57665;51.436;5.978;2023-03-30T00:19:43;39.08;37.77;40.22;;
67320;Laerm;57665;51.436;5.978;2023-03-30T00:19:54;38.99;37.38;40.43;;
67320;Laerm;57665;51.436;5.978;2023-03-30T00:20:05;38.78;37.61;41.64;;
67320;Laerm;57665;51.436;5.978;2023-03-30T00:20:26;38.81;37.71;40.45;;
67320;Laerm;57665;51.436;5.978;2023-03-30T00:20:36;38.86;37.58;40.04;;
67320;Laerm;57665;51.436;5.978;2023-03-30T00:21:00;38.66;37.40;39.94;;
67320;Laerm;57665;51.436;5.978;2023-03-30T00:21:11;38.73;37.66;40.05;;
67320;Laerm;57665;51.436;5.978;2023-03-30T00:21:22;38.69;37.74;39.71;;
67320;Laerm;57665;51.436;5.978;2023-03-30T00:21:32;38.63;37.30;39.89;;
67320;Laerm;57665;51.436;5.978;2023-03-30T00:21:42;38.89;37.81;40.08;;
67320;Laerm;57665;51.436;5.978;2023-03-30T00:22:00;38.80;37.45;39.95;;
67320;Laerm;57665;51.436;5.978;2023-03-30T00:22:10;39.64;38.18;41.94;;
67320;Laerm;57665;51.436;5.978;2023-03-30T00:22:21;40.98;39.00;43.97;;
67320;Laerm;57665;51.436;5.978;2023-03-30T00:22:31;47.90;39.57;52.07;;
67320;Laerm;57665;51.436;5.978;2023-03-30T00:22:43;48.81;38.74;56.87;;
67320;Laerm;57665;51.436;5.978;2023-03-30T00:22:59;40.34;37.64;45.01;;
67320;Laerm;57665;51.436;5.978;2023-03-30T00:23:10;40.95;37.94;45.91;;
67320;Laerm;57665;51.436;5.978;2023-03-30T00:23:23;38.83;37.36;40.01;;
67320;Laerm;57665;51.436;5.978;2023-03-30T00:23:34;39.57;37.35;43.65;;
67320;Laerm;57665;51.436;5.978;2023-03-30T00:23:44;44.41;40.39;48.95;;
67320;Laerm;57665;51.436;5.978;2023-03-30T00:23:57;39.76;37.76;42.59;;
67320;Laerm;57665;51.436;5.978;2023-03-30T00:24:08;38.74;37.61;39.85;;
67320;Laerm;57665;51.436;5.978;2023-03-30T00:24:18;38.69;37.60;39.80;;
67320;Laerm;57665;51.436;5.978;2023-03-30T00:24:28;38.63;37.26;39.62;;
67320;Laerm;57665;51.436;5.978;2023-03-30T00:24:38;38.52;37.45;39.56;;
67320;Laerm;57665;51.436;5.978;2023-03-30T00:24:49;38.58;37.46;39.61;;
67320;Laerm;57665;51.436;5.978;2023-03-30T00:24:59;38.53;37.40;39.46;;
67320;Laerm;57665;51.436;5.978;2023-03-30T00:25:11;38.61;37.62;39.49;;
67320;Laerm;57665;51.436;5.978;2023-03-30T00:25:22;38.53;37.56;39.80;;
67320;Laerm;57665;51.436;5.978;2023-03-30T00:25:32;38.36;37.26;39.53;;
67320;Laerm;57665;51.436;5.978;2023-03-30T00:25:42;38.47;37.15;39.69;;
67320;Laerm;57665;51.436;5.978;2023-03-30T00:25:52;38.55;37.55;39.64;;
67320;Laerm;57665;51.436;5.978;2023-03-30T00:26:03;38.45;37.31;39.65;;
67320;Laerm;57665;51.436;5.978;2023-03-30T00:26:13;38.43;37.44;39.69;;
67320;Laerm;57665;51.436;5.978;2023-03-30T00:26:23;38.43;37.43;39.28;;
67320;Laerm;57665;51.436;5.978;2023-03-30T00:26:34;38.56;37.37;39.66;;
67320;Laerm;57665;51.436;5.978;2023-03-30T00:26:44;38.67;37.57;40.03;;
67320;Laerm;57665;51.436;5.978;2023-03-30T00:26:54;38.51;37.48;40.05;;
67320;Laerm;57665;51.436;5.978;2023-03-30T00:27:05;38.50;37.24;39.80;;
67320;Laerm;57665;51.436;5.978;2023-03-30T00:27:15;38.58;37.41;39.53;;
67320;Laerm;57665;51.436;5.978;2023-03-30T00:27:26;38.52;37.18;39.50;;
67320;Laerm;57665;51.436;5.978;2023-03-30T00:27:36;38.55;37.67;39.98;;
67320;Laerm;57665;51.436;5.978;2023-03-30T00:27:47;38.49;37.45;39.56;;
67320;Laerm;57665;51.436;5.978;2023-03-30T00:27:57;38.35;36.82;39.60;;
67320;Laerm;57665;51.436;5.978;2023-03-30T00:28:07;38.47;37.33;39.74;;
67320;Laerm;57665;51.436;5.978;2023-03-30T00:28:17;38.48;37.04;39.64;;
67320;Laerm;57665;51.436;5.978;2023-03-30T00:28:28;38.40;37.08;39.57;;
67320;Laerm;57665;51.436;5.978;2023-03-30T00:28:40;38.43;37.30;39.64;;
67320;Laerm;57665;51.436;5.978;2023-03-30T00:28:50;38.56;37.54;39.76;;
67320;Laerm;57665;51.436;5.978;2023-03-30T00:29:01;38.43;37.40;39.64;;
67320;Laerm;57665;51.436;5.978;2023-03-30T00:29:13;38.61;37.45;40.04;;
67320;Laerm;57665;51.436;5.978;2023-03-30T00:29:24;38.60;37.09;39.62;;
67320;Laerm;57665;51.436;5.978;2023-03-30T00:29:34;38.40;37.21;39.40;;
67320;Laerm;57665;51.436;5.978;2023-03-30T00:29:44;38.37;37.30;39.39;;
67320;Laerm;57665;51.436;5.978;2023-03-30T00:29:54;38.39;37.33;39.47;;
67320;Laerm;57665;51.436;5.978;2023-03-30T00:30:06;38.44;37.41;39.39;;
67320;Laerm;57665;51.436;5.978;2023-03-30T00:30:16;38.44;37.24;39.54;;
67320;Laerm;57665;51.436;5.978;2023-03-30T00:30:33;38.48;37.20;39.70;;
67320;Laerm;57665;51.436;5.978;2023-03-30T00:30:44;38.41;37.35;39.22;;
67320;Laerm;57665;51.436;5.978;2023-03-30T00:31:02;38.34;36.92;39.38;;
67320;Laerm;57665;51.436;5.978;2023-03-30T00:31:12;38.47;37.21;39.86;;
67320;Laerm;57665;51.436;5.978;2023-03-30T00:31:24;38.39;37.09;39.78;;
67320;Laerm;57665;51.436;5.978;2023-03-30T00:31:34;38.41;37.32;39.57;;
67320;Laerm;57665;51.436;5.978;2023-03-30T00:31:51;38.38;36.99;39.76;;
67320;Laerm;57665;51.436;5.978;2023-03-30T00:32:01;38.39;37.22;39.47;;
67320;Laerm;57665;51.436;5.978;2023-03-30T00:32:12;38.50;37.34;39.94;;
67320;Laerm;57665;51.436;5.978;2023-03-30T00:32:28;38.59;37.14;40.04;;
67320;Laerm;57665;51.436;5.978;2023-03-30T00:32:45;38.59;37.43;39.96;;
67320;Laerm;57665;51.436;5.978;2023-03-30T00:32:55;38.62;37.38;39.67;;
67320;Laerm;57665;51.436;5.978;2023-03-30T00:33:06;38.56;37.15;39.71;;
67320;Laerm;57665;51.436;5.978;2023-03-30T00:33:16;38.44;37.09;39.31;;
67320;Laerm;57665;51.436;5.978;2023-03-30T00:33:29;38.63;37.28;39.97;;
67320;Laerm;57665;51.436;5.978;2023-03-30T00:33:40;38.52;37.21;39.72;;
67320;Laerm;57665;51.436;5.978;2023-03-30T00:33:53;38.48;37.23;40.16;;
67320;Laerm;57665;51.436;5.978;2023-03-30T00:34:03;38.50;37.45;39.65;;
67320;Laerm;57665;51.436;5.978;2023-03-30T00:34:13;38.47;37.32;39.64;;
67320;Laerm;57665;51.436;5.978;2023-03-30T00:34:30;38.58;37.33;39.68;;
67320;Laerm;57665;51.436;5.978;2023-03-30T00:34:40;38.80;37.33;42.90;;
67320;Laerm;57665;51.436;5.978;2023-03-30T00:34:53;38.58;37.67;39.67;;
67320;Laerm;57665;51.436;5.978;2023-03-30T00:35:03;38.62;37.30;39.64;;
67320;Laerm;57665;51.436;5.978;2023-03-30T00:35:14;38.45;36.93;39.44;;
67320;Laerm;57665;51.436;5.978;2023-03-30T00:35:24;38.81;37.46;41.92;;
67320;Laerm;57665;51.436;5.978;2023-03-30T00:35:35;38.52;37.26;39.67;;
67320;Laerm;57665;51.436;5.978;2023-03-30T00:35:52;38.45;37.23;40.14;;
67320;Laerm;57665;51.436;5.978;2023-03-30T00:36:03;38.47;37.40;40.23;;
67320;Laerm;57665;51.436;5.978;2023-03-30T00:36:13;38.26;36.73;39.29;;
67320;Laerm;57665;51.436;5.978;2023-03-30T00:36:24;38.26;37.17;39.41;;
67320;Laerm;57665;51.436;5.978;2023-03-30T00:36:37;38.28;37.27;39.39;;
67320;Laerm;57665;51.436;5.978;2023-03-30T00:36:47;38.55;37.36;39.65;;
67320;Laerm;57665;51.436;5.978;2023-03-30T00:36:58;38.43;37.33;39.69;;
67320;Laerm;57665;51.436;5.978;2023-03-30T00:37:19;38.45;37.18;39.85;;
67320;Laerm;57665;51.436;5.978;2023-03-30T00:37:32;38.44;37.09;39.86;;
67320;Laerm;57665;51.436;5.978;2023-03-30T00:37:46;38.34;36.95;39.51;;
67320;Laerm;57665;51.436;5.978;2023-03-30T00:37:59;38.39;37.18;39.34;;
67320;Laerm;57665;51.436;5.978;2023-03-30T00:38:14;38.34;37.32;39.33;;
67320;Laerm;57665;51.436;5.978;2023-03-30T00:38:25;38.25;36.97;39.32;;
67320;Laerm;57665;51.436;5.978;2023-03-30T00:38:38;38.39;37.35;39.41;;
67320;Laerm;57665;51.436;5.978;2023-03-30T00:38:49;38.27;37.27;39.35;;
67320;Laerm;57665;51.436;5.978;2023-03-30T00:38:59;38.17;37.12;39.26;;
67320;Laerm;57665;51.436;5.978;2023-03-30T00:39:10;38.34;37.10;39.50;;
67320;Laerm;57665;51.436;5.978;2023-03-30T00:39:21;38.27;37.05;39.44;;
67320;Laerm;57665;51.436;5.978;2023-03-30T00:39:46;38.29;36.90;39.69;;
67320;Laerm;57665;51.436;5.978;2023-03-30T00:39:59;38.11;36.87;39.21;;
67320;Laerm;57665;51.436;5.978;2023-03-30T00:40:14;38.30;37.16;39.87;;
67320;Laerm;57665;51.436;5.978;2023-03-30T00:40:26;38.32;37.14;39.31;;
67320;Laerm;57665;51.436;5.978;2023-03-30T00:40:39;38.23;37.11;39.57;;
67320;Laerm;57665;51.436;5.978;2023-03-30T00:40:53;38.24;37.17;39.15;;
67320;Laerm;57665;51.436;5.978;2023-03-30T00:41:03;38.24;37.10;39.36;;
67320;Laerm;57665;51.436;5.978;2023-03-30T00:41:15;38.22;36.86;39.40;;
67320;Laerm;57665;51.436;5.978;2023-03-30T00:41:26;38.17;37.16;39.43;;
67320;Laerm;57665;51.436;5.978;2023-03-30T00:41:45;38.27;37.18;39.60;;
67320;Laerm;57665;51.436;5.978;2023-03-30T00:41:56;38.33;37.20;39.40;;
67320;Laerm;57665;51.436;5.978;2023-03-30T00:42:06;38.22;37.20;39.48;;
67320;Laerm;57665;51.436;5.978;2023-03-30T00:42:16;38.36;36.66;41.38;;
67320;Laerm;57665;51.436;5.978;2023-03-30T00:42:29;38.27;37.22;39.18;;
67320;Laerm;57665;51.436;5.978;2023-03-30T00:42:40;38.17;36.87;39.29;;
67320;Laerm;57665;51.436;5.978;2023-03-30T00:43:06;38.29;37.38;39.17;;
67320;Laerm;57665;51.436;5.978;2023-03-30T00:43:20;38.33;37.28;39.58;;
67320;Laerm;57665;51.436;5.978;2023-03-30T00:43:55;38.30;37.15;39.46;;
67320;Laerm;57665;51.436;5.978;2023-03-30T00:45:13;38.36;37.15;39.76;;
67320;Laerm;57665;51.436;5.978;2023-03-30T00:45:29;38.39;37.15;40.58;;
67320;Laerm;57665;51.436;5.978;2023-03-30T00:45:40;38.27;37.01;39.34;;
67320;Laerm;57665;51.436;5.978;2023-03-30T00:45:50;38.35;37.16;39.60;;
67320;Laerm;57665;51.436;5.978;2023-03-30T00:46:01;38.32;37.33;39.62;;
67320;Laerm;57665;51.436;5.978;2023-03-30T00:46:11;38.51;37.12;39.83;;
67320;Laerm;57665;51.436;5.978;2023-03-30T00:46:21;38.67;36.60;45.22;;
67320;Laerm;57665;51.436;5.978;2023-03-30T00:46:32;39.53;37.48;48.35;;
67320;Laerm;57665;51.436;5.978;2023-03-30T00:46:45;38.51;37.29;40.56;;
67320;Laerm;57665;51.436;5.978;2023-03-30T00:46:55;38.47;37.37;40.14;;
67320;Laerm;57665;51.436;5.978;2023-03-30T00:47:16;38.32;37.21;39.66;;
67320;Laerm;57665;51.436;5.978;2023-03-30T00:47:37;38.37;37.45;39.51;;
67320;Laerm;57665;51.436;5.978;2023-03-30T00:48:00;38.54;37.33;41.75;;
67320;Laerm;57665;51.436;5.978;2023-03-30T00:48:19;38.32;37.16;39.97;;
67320;Laerm;57665;51.436;5.978;2023-03-30T00:48:32;38.43;37.06;39.84;;
67320;Laerm;57665;51.436;5.978;2023-03-30T00:48:43;38.43;37.47;39.33;;
67320;Laerm;57665;51.436;5.978;2023-03-30T00:48:54;38.34;37.27;39.46;;
67320;Laerm;57665;51.436;5.978;2023-03-30T00:49:07;38.37;37.19;39.53;;
67320;Laerm;57665;51.436;5.978;2023-03-30T00:49:19;38.44;37.12;39.56;;
67320;Laerm;57665;51.436;5.978;2023-03-30T00:49:30;38.25;37.25;39.69;;
67320;Laerm;57665;51.436;5.978;2023-03-30T00:49:41;38.26;37.02;39.47;;
67320;Laerm;57665;51.436;5.978;2023-03-30T00:49:52;39.45;37.73;43.55;;
67320;Laerm;57665;51.436;5.978;2023-03-30T00:50:03;38.74;37.69;39.84;;
67320;Laerm;57665;51.436;5.978;2023-03-30T00:50:14;40.21;37.58;52.35;;
67320;Laerm;57665;51.436;5.978;2023-03-30T00:50:30;40.99;37.23;50.77;;
67320;Laerm;57665;51.436;5.978;2023-03-30T00:50:45;38.61;37.33;39.84;;
67320;Laerm;57665;51.436;5.978;2023-03-30T00:51:03;38.59;37.55;40.02;;
67320;Laerm;57665;51.436;5.978;2023-03-30T00:51:16;38.55;37.02;40.78;;
67320;Laerm;57665;51.436;5.978;2023-03-30T00:51:27;38.50;36.92;40.06;;
67320;Laerm;57665;51.436;5.978;2023-03-30T00:51:38;38.97;37.88;41.47;;
67320;Laerm;57665;51.436;5.978;2023-03-30T00:51:49;39.02;36.97;46.63;;
67320;Laerm;57665;51.436;5.978;2023-03-30T00:52:00;38.38;37.25;39.41;;
67320;Laerm;57665;51.436;5.978;2023-03-30T00:52:11;38.52;37.32;41.96;;
67320;Laerm;57665;51.436;5.978;2023-03-30T00:52:21;38.92;37.47;42.61;;
67320;Laerm;57665;51.436;5.978;2023-03-30T00:52:34;39.23;37.52;44.63;;
67320;Laerm;57665;51.436;5.978;2023-03-30T00:52:46;39.27;37.55;49.30;;
67320;Laerm;57665;51.436;5.978;2023-03-30T00:52:57;39.90;37.69;51.71;;
67320;Laerm;57665;51.436;5.978;2023-03-30T00:53:10;38.80;37.29;40.33;;
67320;Laerm;57665;51.436;5.978;2023-03-30T00:53:23;38.70;37.64;40.77;;
67320;Laerm;57665;51.436;5.978;2023-03-30T00:53:50;38.95;37.45;45.67;;
67320;Laerm;57665;51.436;5.978;2023-03-30T00:54:04;39.62;37.31;48.38;;
67320;Laerm;57665;51.436;5.978;2023-03-30T00:54:17;38.41;37.27;39.56;;
67320;Laerm;57665;51.436;5.978;2023-03-30T00:54:29;38.59;37.37;41.40;;
67320;Laerm;57665;51.436;5.978;2023-03-30T00:54:39;39.66;37.84;47.20;;
67320;Laerm;57665;51.436;5.978;2023-03-30T00:54:53;40.81;37.46;52.87;;
67320;Laerm;57665;51.436;5.978;2023-03-30T00:55:05;38.51;37.21;41.81;;
67320;Laerm;57665;51.436;5.978;2023-03-30T00:55:17;39.41;37.58;47.43;;
67320;Laerm;57665;51.436;5.978;2023-03-30T00:55:29;39.07;37.93;40.45;;
67320;Laerm;57665;51.436;5.978;2023-03-30T00:55:40;38.88;37.66;41.15;;
67320;Laerm;57665;51.436;5.978;2023-03-30T00:55:51;39.79;37.41;50.62;;
67320;Laerm;57665;51.436;5.978;2023-03-30T00:56:03;38.85;37.54;42.76;;
67320;Laerm;57665;51.436;5.978;2023-03-30T00:56:17;39.36;37.50;47.38;;
67320;Laerm;57665;51.436;5.978;2023-03-30T00:56:30;38.73;37.38;42.13;;
67320;Laerm;57665;51.436;5.978;2023-03-30T00:56:40;43.27;37.91;57.35;;
67320;Laerm;57665;51.436;5.978;2023-03-30T00:56:51;40.03;37.74;48.60;;
67320;Laerm;57665;51.436;5.978;2023-03-30T00:57:01;38.46;37.21;40.18;;
67320;Laerm;57665;51.436;5.978;2023-03-30T00:57:11;40.67;37.89;50.57;;
67320;Laerm;57665;51.436;5.978;2023-03-30T00:57:22;39.19;37.82;44.27;;
67320;Laerm;57665;51.436;5.978;2023-03-30T00:57:34;38.57;37.22;39.87;;
67320;Laerm;57665;51.436;5.978;2023-03-30T00:57:48;38.82;37.36;44.34;;
67320;Laerm;57665;51.436;5.978;2023-03-30T00:58:06;38.83;37.68;42.46;;
67320;Laerm;57665;51.436;5.978;2023-03-30T00:58:27;39.20;37.60;44.20;;
67320;Laerm;57665;51.436;5.978;2023-03-30T00:58:51;40.44;37.72;52.46;;
67320;Laerm;57665;51.436;5.978;2023-03-30T00:59:10;42.15;37.49;58.06;;
67320;Laerm;57665;51.436;5.978;2023-03-30T00:59:21;38.94;37.15;40.41;;
67320;Laerm;57665;51.436;5.978;2023-03-30T00:59:32;38.66;37.36;40.15;;
67320;Laerm;57665;51.436;5.978;2023-03-30T00:59:43;38.59;37.39;41.51;;
67320;Laerm;57665;51.436;5.978;2023-03-30T00:59:54;38.44;37.33;40.11;;
67320;Laerm;57665;51.436;5.978;2023-03-30T01:00:05;38.44;37.52;40.21;;
67320;Laerm;57665;51.436;5.978;2023-03-30T01:00:17;38.49;37.14;39.98;;
67320;Laerm;57665;51.436;5.978;2023-03-30T01:00:28;38.92;37.75;40.25;;
67320;Laerm;57665;51.436;5.978;2023-03-30T01:00:38;38.44;37.21;39.59;;
67320;Laerm;57665;51.436;5.978;2023-03-30T01:00:49;38.26;37.24;39.46;;
67320;Laerm;57665;51.436;5.978;2023-03-30T01:01:03;38.29;36.68;39.51;;
67320;Laerm;57665;51.436;5.978;2023-03-30T01:01:15;38.50;37.01;41.79;;
67320;Laerm;57665;51.436;5.978;2023-03-30T01:01:27;40.13;38.17;47.08;;
67320;Laerm;57665;51.436;5.978;2023-03-30T01:01:38;40.75;38.26;48.61;;
67320;Laerm;57665;51.436;5.978;2023-03-30T01:01:50;38.49;37.24;42.34;;
67320;Laerm;57665;51.436;5.978;2023-03-30T01:02:00;38.32;36.88;39.49;;
67320;Laerm;57665;51.436;5.978;2023-03-30T01:02:10;38.42;37.27;39.99;;
67320;Laerm;57665;51.436;5.978;2023-03-30T01:02:23;38.70;37.09;41.36;;
67320;Laerm;57665;51.436;5.978;2023-03-30T01:02:34;38.55;37.26;40.03;;
67320;Laerm;57665;51.436;5.978;2023-03-30T01:03:23;39.60;37.42;45.95;;
67320;Laerm;57665;51.436;5.978;2023-03-30T01:03:31;40.61;37.67;45.33;;
67320;Laerm;57665;51.436;5.978;2023-03-30T01:03:37;39.58;37.42;49.19;;
67320;Laerm;57665;51.436;5.978;2023-03-30T01:03:52;38.98;37.54;45.52;;
67320;Laerm;57665;51.436;5.978;2023-03-30T01:04:03;40.02;37.15;47.62;;
67320;Laerm;57665;51.436;5.978;2023-03-30T01:04:14;40.29;37.14;50.71;;
67320;Laerm;57665;51.436;5.978;2023-03-30T01:04:26;39.36;37.48;46.25;;
67320;Laerm;57665;51.436;5.978;2023-03-30T01:04:37;38.80;37.36;40.45;;
67320;Laerm;57665;51.436;5.978;2023-03-30T01:04:48;38.55;37.47;39.83;;
67320;Laerm;57665;51.436;5.978;2023-03-30T01:04:59;38.71;37.47;40.90;;
67320;Laerm;57665;51.436;5.978;2023-03-30T01:05:10;39.12;37.54;40.49;;
67320;Laerm;57665;51.436;5.978;2023-03-30T01:05:21;38.50;37.32;40.07;;
67320;Laerm;57665;51.436;5.978;2023-03-30T01:05:33;38.63;37.15;45.94;;
67320;Laerm;57665;51.436;5.978;2023-03-30T01:05:44;38.73;37.02;43.39;;
67320;Laerm;57665;51.436;5.978;2023-03-30T01:05:55;38.18;37.00;39.57;;
67320;Laerm;57665;51.436;5.978;2023-03-30T01:06:06;38.24;36.75;39.50;;
67320;Laerm;57665;51.436;5.978;2023-03-30T01:06:17;38.78;37.50;43.85;;
67320;Laerm;57665;51.436;5.978;2023-03-30T01:06:31;38.53;37.08;41.90;;
67320;Laerm;57665;51.436;5.978;2023-03-30T01:06:43;38.91;37.27;44.25;;
67320;Laerm;57665;51.436;5.978;2023-03-30T01:06:55;38.45;37.17;39.71;;
67320;Laerm;57665;51.436;5.978;2023-03-30T01:07:07;38.58;37.53;40.03;;
67320;Laerm;57665;51.436;5.978;2023-03-30T01:07:21;38.74;37.02;40.30;;
67320;Laerm;57665;51.436;5.978;2023-03-30T01:07:34;38.93;37.35;46.30;;
67320;Laerm;57665;51.436;5.978;2023-03-30T01:07:45;38.93;37.35;42.42;;
67320;Laerm;57665;51.436;5.978;2023-03-30T01:07:58;38.67;37.20;39.65;;
67320;Laerm;57665;51.436;5.978;2023-03-30T01:08:10;39.66;37.43;44.72;;
67320;Laerm;57665;51.436;5.978;2023-03-30T01:08:26;38.81;37.31;42.22;;
67320;Laerm;57665;51.436;5.978;2023-03-30T01:08:43;38.32;37.05;39.52;;
67320;Laerm;57665;51.436;5.978;2023-03-30T01:08:54;38.32;37.14;39.37;;
67320;Laerm;57665;51.436;5.978;2023-03-30T01:09:05;38.32;37.02;39.86;;
67320;Laerm;57665;51.436;5.978;2023-03-30T01:09:15;38.28;36.96;41.62;;
67320;Laerm;57665;51.436;5.978;2023-03-30T01:09:27;38.06;36.91;39.34;;
67320;Laerm;57665;51.436;5.978;2023-03-30T01:09:38;38.27;37.02;39.28;;
67320;Laerm;57665;51.436;5.978;2023-03-30T01:09:49;38.49;37.27;39.81;;
67320;Laerm;57665;51.436;5.978;2023-03-30T01:10:01;38.55;37.36;39.84;;
67320;Laerm;57665;51.436;5.978;2023-03-30T01:10:11;38.61;37.37;39.74;;